sensor_id;sensor_type;location;lat;lon;timestamp;P1;durP1;ratioP1;P2;durP2;ratioP2
3819;SDS011;1925;51.356;9.530;2023-02-03T00:02:01;10.63;;;8.10;;
3819;SDS011;1925;51.356;9.530;2023-02-03T00:04:27;10.53;;;8.00;;
3819;SDS011;1925;51.356;9.530;2023-02-03T00:06:53;20.00;;;9.73;;
3819;SDS011;1925;51.356;9.530;2023-02-03T00:09:19;9.88;;;7.43;;
3819;SDS011;1925;51.356;9.530;2023-02-03T00:11:45;11.90;;;8.45;;
3819;SDS011;1925;51.356;9.530;2023-02-03T00:14:11;11.85;;;7.70;;
3819;SDS011;1925;51.356;9.530;2023-02-03T00:16:37;9.87;;;7.50;;
3819;SDS011;1925;51.356;9.530;2023-02-03T00:19:03;10.47;;;6.67;;
3819;SDS011;1925;51.356;9.530;2023-02-03T00:21:29;10.10;;;7.10;;
3819;SDS011;1925;51.356;9.530;2023-02-03T00:23:55;9.05;;;7.15;;
3819;SDS011;1925;51.356;9.530;2023-02-03T00:26:21;8.93;;;6.27;;
3819;SDS011;1925;51.356;9.530;2023-02-03T00:28:49;10.25;;;7.30;;
3819;SDS011;1925;51.356;9.530;2023-02-03T00:31:18;9.87;;;7.10;;
3819;SDS011;1925;51.356;9.530;2023-02-03T00:33:45;9.48;;;6.82;;
3819;SDS011;1925;51.356;9.530;2023-02-03T00:36:11;9.85;;;8.02;;
3819;SDS011;1925;51.356;9.530;2023-02-03T00:38:38;10.05;;;7.50;;
3819;SDS011;1925;51.356;9.530;2023-02-03T00:41:04;8.57;;;7.13;;
3819;SDS011;1925;51.356;9.530;2023-02-03T00:43:30;10.85;;;8.05;;
3819;SDS011;1925;51.356;9.530;2023-02-03T00:45:56;9.23;;;7.03;;
3819;SDS011;1925;51.356;9.530;2023-02-03T00:48:22;9.63;;;6.80;;
3819;SDS011;1925;51.356;9.530;2023-02-03T00:50:48;11.00;;;7.00;;
3819;SDS011;1925;51.356;9.530;2023-02-03T00:53:14;9.80;;;7.10;;
3819;SDS011;1925;51.356;9.530;2023-02-03T00:55:41;9.80;;;7.03;;
3819;SDS011;1925;51.356;9.530;2023-02-03T00:58:07;10.73;;;7.82;;
3819;SDS011;1925;51.356;9.530;2023-02-03T01:00:33;10.87;;;7.07;;
3819;SDS011;1925;51.356;9.530;2023-02-03T01:02:59;9.57;;;7.33;;
3819;SDS011;1925;51.356;9.530;2023-02-03T01:05:25;13.63;;;8.47;;
3819;SDS011;1925;51.356;9.530;2023-02-03T01:07:51;9.57;;;6.90;;
3819;SDS011;1925;51.356;9.530;2023-02-03T01:10:17;9.77;;;7.87;;
3819;SDS011;1925;51.356;9.530;2023-02-03T01:12:43;10.40;;;7.77;;
3819;SDS011;1925;51.356;9.530;2023-02-03T01:15:09;10.50;;;7.47;;
3819;SDS011;1925;51.356;9.530;2023-02-03T01:17:35;9.82;;;7.43;;
3819;SDS011;1925;51.356;9.530;2023-02-03T01:20:01;9.33;;;7.20;;
3819;SDS011;1925;51.356;9.530;2023-02-03T01:22:30;10.80;;;7.97;;
3819;SDS011;1925;51.356;9.530;2023-02-03T01:24:56;10.43;;;7.68;;
3819;SDS011;1925;51.356;9.530;2023-02-03T01:27:22;9.73;;;7.43;;
3819;SDS011;1925;51.356;9.530;2023-02-03T01:29:48;11.50;;;8.00;;
3819;SDS011;1925;51.356;9.530;2023-02-03T01:32:14;15.50;;;8.43;;
3819;SDS011;1925;51.356;9.530;2023-02-03T01:34:39;10.63;;;8.67;;
3819;SDS011;1925;51.356;9.530;2023-02-03T01:37:05;12.47;;;8.70;;
3819;SDS011;1925;51.356;9.530;2023-02-03T01:39:31;10.40;;;8.03;;
3819;SDS011;1925;51.356;9.530;2023-02-03T01:41:57;10.67;;;7.87;;
3819;SDS011;1925;51.356;9.530;2023-02-03T01:47:01;9.15;;;6.90;;
3819;SDS011;1925;51.356;9.530;2023-02-03T01:49:31;10.40;;;7.50;;
3819;SDS011;1925;51.356;9.530;2023-02-03T01:51:58;10.43;;;7.70;;
3819;SDS011;1925;51.356;9.530;2023-02-03T01:54:25;10.35;;;7.35;;
3819;SDS011;1925;51.356;9.530;2023-02-03T01:57:00;10.77;;;7.38;;
3819;SDS011;1925;51.356;9.530;2023-02-03T01:59:26;10.13;;;8.65;;
3819;SDS011;1925;51.356;9.530;2023-02-03T02:01:54;11.00;;;8.10;;
3819;SDS011;1925;51.356;9.530;2023-02-03T02:04:21;12.00;;;8.70;;
3819;SDS011;1925;51.356;9.530;2023-02-03T02:06:49;9.55;;;7.60;;
3819;SDS011;1925;51.356;9.530;2023-02-03T02:09:16;9.10;;;6.80;;
3819;SDS011;1925;51.356;9.530;2023-02-03T02:11:42;9.25;;;7.35;;
3819;SDS011;1925;51.356;9.530;2023-02-03T02:14:08;12.33;;;8.33;;
3819;SDS011;1925;51.356;9.530;2023-02-03T02:16:38;9.65;;;7.60;;
3819;SDS011;1925;51.356;9.530;2023-02-03T02:19:26;10.57;;;7.60;;
3819;SDS011;1925;51.356;9.530;2023-02-03T02:24:52;9.48;;;7.45;;
3819;SDS011;1925;51.356;9.530;2023-02-03T02:27:25;11.50;;;7.40;;
3819;SDS011;1925;51.356;9.530;2023-02-03T02:32:43;10.52;;;7.85;;
3819;SDS011;1925;51.356;9.530;2023-02-03T02:35:26;8.77;;;7.30;;
3819;SDS011;1925;51.356;9.530;2023-02-03T02:38:02;10.07;;;7.30;;
3819;SDS011;1925;51.356;9.530;2023-02-03T02:43:00;8.70;;;6.95;;
3819;SDS011;1925;51.356;9.530;2023-02-03T02:45:31;9.63;;;7.78;;
3819;SDS011;1925;51.356;9.530;2023-02-03T02:48:03;12.80;;;8.07;;
3819;SDS011;1925;51.356;9.530;2023-02-03T02:50:31;14.30;;;8.55;;
3819;SDS011;1925;51.356;9.530;2023-02-03T02:52:59;9.65;;;7.80;;
3819;SDS011;1925;51.356;9.530;2023-02-03T02:55:26;11.00;;;8.23;;
3819;SDS011;1925;51.356;9.530;2023-02-03T02:57:54;9.00;;;7.65;;
3819;SDS011;1925;51.356;9.530;2023-02-03T03:00:22;10.50;;;7.15;;
3819;SDS011;1925;51.356;9.530;2023-02-03T03:02:48;9.55;;;8.00;;
3819;SDS011;1925;51.356;9.530;2023-02-03T03:05:14;11.33;;;7.47;;
3819;SDS011;1925;51.356;9.530;2023-02-03T03:07:44;9.90;;;8.68;;
3819;SDS011;1925;51.356;9.530;2023-02-03T03:10:12;11.55;;;7.97;;
3819;SDS011;1925;51.356;9.530;2023-02-03T03:12:43;9.38;;;7.50;;
3819;SDS011;1925;51.356;9.530;2023-02-03T03:15:10;10.05;;;6.35;;
3819;SDS011;1925;51.356;9.530;2023-02-03T03:17:42;12.43;;;7.80;;
3819;SDS011;1925;51.356;9.530;2023-02-03T03:20:10;8.32;;;7.15;;
3819;SDS011;1925;51.356;9.530;2023-02-03T03:22:39;12.18;;;7.65;;
3819;SDS011;1925;51.356;9.530;2023-02-03T03:25:12;13.93;;;8.50;;
3819;SDS011;1925;51.356;9.530;2023-02-03T03:27:41;11.55;;;6.72;;
3819;SDS011;1925;51.356;9.530;2023-02-03T03:30:10;10.73;;;6.32;;
3819;SDS011;1925;51.356;9.530;2023-02-03T03:32:37;8.90;;;5.80;;
3819;SDS011;1925;51.356;9.530;2023-02-03T03:35:04;9.63;;;5.90;;
3819;SDS011;1925;51.356;9.530;2023-02-03T03:37:33;6.55;;;5.88;;
3819;SDS011;1925;51.356;9.530;2023-02-03T03:40:00;10.52;;;6.60;;
3819;SDS011;1925;51.356;9.530;2023-02-03T03:42:33;8.57;;;5.40;;
3819;SDS011;1925;51.356;9.530;2023-02-03T03:45:02;5.10;;;4.60;;
3819;SDS011;1925;51.356;9.530;2023-02-03T03:50:09;5.72;;;3.80;;
3819;SDS011;1925;51.356;9.530;2023-02-03T03:52:36;5.32;;;4.50;;
3819;SDS011;1925;51.356;9.530;2023-02-03T03:55:04;8.07;;;4.53;;
3819;SDS011;1925;51.356;9.530;2023-02-03T03:57:33;8.85;;;5.40;;
3819;SDS011;1925;51.356;9.530;2023-02-03T04:00:01;7.45;;;4.78;;
3819;SDS011;1925;51.356;9.530;2023-02-03T04:02:27;6.25;;;4.18;;
3819;SDS011;1925;51.356;9.530;2023-02-03T04:04:54;5.13;;;4.60;;
3819;SDS011;1925;51.356;9.530;2023-02-03T04:07:21;6.82;;;5.50;;
3819;SDS011;1925;51.356;9.530;2023-02-03T04:09:47;5.23;;;4.40;;
3819;SDS011;1925;51.356;9.530;2023-02-03T04:12:15;6.03;;;4.97;;
3819;SDS011;1925;51.356;9.530;2023-02-03T04:14:44;6.07;;;4.90;;
3819;SDS011;1925;51.356;9.530;2023-02-03T04:17:10;6.43;;;4.87;;
3819;SDS011;1925;51.356;9.530;2023-02-03T04:19:36;6.37;;;4.40;;
3819;SDS011;1925;51.356;9.530;2023-02-03T04:22:02;4.40;;;4.00;;
3819;SDS011;1925;51.356;9.530;2023-02-03T04:24:28;7.37;;;5.13;;
3819;SDS011;1925;51.356;9.530;2023-02-03T04:26:54;6.07;;;5.10;;
3819;SDS011;1925;51.356;9.530;2023-02-03T04:29:20;6.40;;;4.73;;
3819;SDS011;1925;51.356;9.530;2023-02-03T04:31:46;7.20;;;5.47;;
3819;SDS011;1925;51.356;9.530;2023-02-03T04:34:12;5.70;;;4.70;;
3819;SDS011;1925;51.356;9.530;2023-02-03T04:36:38;6.80;;;6.10;;
3819;SDS011;1925;51.356;9.530;2023-02-03T04:39:04;4.43;;;3.73;;
3819;SDS011;1925;51.356;9.530;2023-02-03T04:41:30;6.30;;;4.10;;
3819;SDS011;1925;51.356;9.530;2023-02-03T04:43:55;8.07;;;5.10;;
3819;SDS011;1925;51.356;9.530;2023-02-03T04:46:21;5.23;;;4.73;;
3819;SDS011;1925;51.356;9.530;2023-02-03T04:48:47;6.10;;;4.13;;
3819;SDS011;1925;51.356;9.530;2023-02-03T04:51:13;4.80;;;4.20;;
3819;SDS011;1925;51.356;9.530;2023-02-03T04:53:39;5.07;;;3.90;;
3819;SDS011;1925;51.356;9.530;2023-02-03T04:56:05;6.47;;;4.00;;
3819;SDS011;1925;51.356;9.530;2023-02-03T04:58:31;7.05;;;4.20;;
3819;SDS011;1925;51.356;9.530;2023-02-03T05:00:57;7.17;;;4.07;;
3819;SDS011;1925;51.356;9.530;2023-02-03T05:03:23;6.25;;;4.72;;
3819;SDS011;1925;51.356;9.530;2023-02-03T05:05:49;5.43;;;3.80;;
3819;SDS011;1925;51.356;9.530;2023-02-03T05:08:15;4.40;;;3.97;;
3819;SDS011;1925;51.356;9.530;2023-02-03T05:10:41;4.43;;;3.87;;
3819;SDS011;1925;51.356;9.530;2023-02-03T05:13:07;5.67;;;4.20;;
3819;SDS011;1925;51.356;9.530;2023-02-03T05:15:33;4.30;;;3.90;;
3819;SDS011;1925;51.356;9.530;2023-02-03T05:17:59;4.70;;;4.17;;
3819;SDS011;1925;51.356;9.530;2023-02-03T05:20:25;7.30;;;4.47;;
3819;SDS011;1925;51.356;9.530;2023-02-03T05:22:52;6.05;;;3.95;;
3819;SDS011;1925;51.356;9.530;2023-02-03T05:25:18;4.07;;;3.67;;
3819;SDS011;1925;51.356;9.530;2023-02-03T05:27:44;7.70;;;4.28;;
3819;SDS011;1925;51.356;9.530;2023-02-03T05:30:10;4.97;;;3.93;;
3819;SDS011;1925;51.356;9.530;2023-02-03T05:32:36;5.43;;;3.75;;
3819;SDS011;1925;51.356;9.530;2023-02-03T05:35:02;5.70;;;3.97;;
3819;SDS011;1925;51.356;9.530;2023-02-03T05:37:28;3.77;;;3.47;;
3819;SDS011;1925;51.356;9.530;2023-02-03T05:39:54;4.00;;;3.47;;
3819;SDS011;1925;51.356;9.530;2023-02-03T05:42:44;3.60;;;3.30;;
3819;SDS011;1925;51.356;9.530;2023-02-03T05:45:10;7.28;;;3.95;;
3819;SDS011;1925;51.356;9.530;2023-02-03T05:47:36;3.90;;;3.53;;
3819;SDS011;1925;51.356;9.530;2023-02-03T05:50:02;5.47;;;3.20;;
3819;SDS011;1925;51.356;9.530;2023-02-03T05:52:28;3.55;;;3.20;;
3819;SDS011;1925;51.356;9.530;2023-02-03T05:54:54;3.87;;;3.40;;
3819;SDS011;1925;51.356;9.530;2023-02-03T05:57:20;5.73;;;3.17;;
3819;SDS011;1925;51.356;9.530;2023-02-03T05:59:46;3.70;;;3.30;;
3819;SDS011;1925;51.356;9.530;2023-02-03T06:02:13;4.75;;;4.25;;
3819;SDS011;1925;51.356;9.530;2023-02-03T06:04:39;4.87;;;3.27;;
3819;SDS011;1925;51.356;9.530;2023-02-03T06:07:05;4.50;;;3.33;;
3819;SDS011;1925;51.356;9.530;2023-02-03T06:09:31;9.10;;;3.67;;
3819;SDS011;1925;51.356;9.530;2023-02-03T06:11:57;4.80;;;4.30;;
3819;SDS011;1925;51.356;9.530;2023-02-03T06:14:23;4.43;;;4.03;;
3819;SDS011;1925;51.356;9.530;2023-02-03T06:16:49;4.73;;;4.40;;
3819;SDS011;1925;51.356;9.530;2023-02-03T06:19:15;3.73;;;3.40;;
3819;SDS011;1925;51.356;9.530;2023-02-03T06:21:41;5.97;;;5.37;;
3819;SDS011;1925;51.356;9.530;2023-02-03T06:24:07;6.67;;;3.03;;
3819;SDS011;1925;51.356;9.530;2023-02-03T06:26:33;4.90;;;3.67;;
3819;SDS011;1925;51.356;9.530;2023-02-03T06:28:59;4.80;;;4.20;;
3819;SDS011;1925;51.356;9.530;2023-02-03T06:31:24;4.30;;;3.60;;
3819;SDS011;1925;51.356;9.530;2023-02-03T06:33:50;5.10;;;3.50;;
3819;SDS011;1925;51.356;9.530;2023-02-03T06:36:16;4.93;;;4.43;;
3819;SDS011;1925;51.356;9.530;2023-02-03T06:38:42;4.10;;;3.50;;
3819;SDS011;1925;51.356;9.530;2023-02-03T06:41:08;4.80;;;3.50;;
3819;SDS011;1925;51.356;9.530;2023-02-03T06:43:34;3.80;;;3.37;;
3819;SDS011;1925;51.356;9.530;2023-02-03T06:46:00;4.50;;;3.15;;
3819;SDS011;1925;51.356;9.530;2023-02-03T06:48:26;8.53;;;3.53;;
3819;SDS011;1925;51.356;9.530;2023-02-03T06:50:52;5.37;;;3.20;;
3819;SDS011;1925;51.356;9.530;2023-02-03T06:53:19;4.13;;;3.45;;
3819;SDS011;1925;51.356;9.530;2023-02-03T06:55:45;4.00;;;3.23;;
3819;SDS011;1925;51.356;9.530;2023-02-03T06:58:11;2.83;;;2.63;;
3819;SDS011;1925;51.356;9.530;2023-02-03T07:00:37;3.23;;;2.43;;
3819;SDS011;1925;51.356;9.530;2023-02-03T07:03:03;7.17;;;4.30;;
3819;SDS011;1925;51.356;9.530;2023-02-03T07:05:29;6.03;;;3.90;;
3819;SDS011;1925;51.356;9.530;2023-02-03T07:07:55;4.30;;;2.70;;
3819;SDS011;1925;51.356;9.530;2023-02-03T07:10:22;4.00;;;3.13;;
3819;SDS011;1925;51.356;9.530;2023-02-03T07:12:48;3.20;;;3.00;;
3819;SDS011;1925;51.356;9.530;2023-02-03T07:15:15;3.83;;;2.65;;
3819;SDS011;1925;51.356;9.530;2023-02-03T07:17:41;5.38;;;2.38;;
3819;SDS011;1925;51.356;9.530;2023-02-03T07:20:07;6.43;;;2.80;;
3819;SDS011;1925;51.356;9.530;2023-02-03T07:22:34;5.53;;;4.97;;
3819;SDS011;1925;51.356;9.530;2023-02-03T07:25:00;4.50;;;3.10;;
3819;SDS011;1925;51.356;9.530;2023-02-03T07:27:26;4.95;;;3.50;;
3819;SDS011;1925;51.356;9.530;2023-02-03T07:29:53;4.25;;;2.63;;
3819;SDS011;1925;51.356;9.530;2023-02-03T07:32:19;3.40;;;2.80;;
3819;SDS011;1925;51.356;9.530;2023-02-03T07:34:45;8.20;;;2.77;;
3819;SDS011;1925;51.356;9.530;2023-02-03T07:37:11;3.83;;;3.27;;
3819;SDS011;1925;51.356;9.530;2023-02-03T07:39:37;5.03;;;3.63;;
3819;SDS011;1925;51.356;9.530;2023-02-03T07:42:03;4.07;;;3.23;;
3819;SDS011;1925;51.356;9.530;2023-02-03T07:44:29;5.57;;;3.40;;
3819;SDS011;1925;51.356;9.530;2023-02-03T07:46:55;4.20;;;2.90;;
3819;SDS011;1925;51.356;9.530;2023-02-03T07:49:21;5.88;;;4.32;;
3819;SDS011;1925;51.356;9.530;2023-02-03T07:51:47;3.70;;;3.40;;
3819;SDS011;1925;51.356;9.530;2023-02-03T07:54:13;3.93;;;3.13;;
3819;SDS011;1925;51.356;9.530;2023-02-03T07:56:39;3.78;;;3.10;;
3819;SDS011;1925;51.356;9.530;2023-02-03T07:59:05;5.23;;;3.33;;
3819;SDS011;1925;51.356;9.530;2023-02-03T08:01:31;5.23;;;2.63;;
3819;SDS011;1925;51.356;9.530;2023-02-03T08:03:58;3.60;;;3.20;;
3819;SDS011;1925;51.356;9.530;2023-02-03T08:06:25;4.25;;;3.08;;
3819;SDS011;1925;51.356;9.530;2023-02-03T08:08:52;3.67;;;2.60;;
3819;SDS011;1925;51.356;9.530;2023-02-03T08:11:18;3.20;;;2.80;;
3819;SDS011;1925;51.356;9.530;2023-02-03T08:13:44;7.43;;;3.27;;
3819;SDS011;1925;51.356;9.530;2023-02-03T08:16:09;3.20;;;2.90;;
3819;SDS011;1925;51.356;9.530;2023-02-03T08:18:35;3.17;;;2.87;;
3819;SDS011;1925;51.356;9.530;2023-02-03T08:21:01;2.83;;;2.63;;
3819;SDS011;1925;51.356;9.530;2023-02-03T08:23:29;2.58;;;2.30;;
3819;SDS011;1925;51.356;9.530;2023-02-03T08:25:54;2.53;;;2.33;;
3819;SDS011;1925;51.356;9.530;2023-02-03T08:28:20;2.80;;;2.20;;
3819;SDS011;1925;51.356;9.530;2023-02-03T08:30:46;2.70;;;2.50;;
3819;SDS011;1925;51.356;9.530;2023-02-03T08:33:12;2.03;;;1.90;;
3819;SDS011;1925;51.356;9.530;2023-02-03T08:35:38;3.50;;;2.27;;
3819;SDS011;1925;51.356;9.530;2023-02-03T08:38:05;1.70;;;1.50;;
3819;SDS011;1925;51.356;9.530;2023-02-03T08:40:31;1.70;;;1.33;;
3819;SDS011;1925;51.356;9.530;2023-02-03T08:42:57;1.83;;;1.60;;
3819;SDS011;1925;51.356;9.530;2023-02-03T08:45:23;1.83;;;1.73;;
3819;SDS011;1925;51.356;9.530;2023-02-03T08:47:49;1.63;;;1.53;;
3819;SDS011;1925;51.356;9.530;2023-02-03T08:50:15;1.90;;;1.40;;
3819;SDS011;1925;51.356;9.530;2023-02-03T08:52:41;2.08;;;1.48;;
3819;SDS011;1925;51.356;9.530;2023-02-03T08:55:07;1.83;;;1.67;;
3819;SDS011;1925;51.356;9.530;2023-02-03T08:57:33;1.48;;;1.38;;
3819;SDS011;1925;51.356;9.530;2023-02-03T09:00:00;3.70;;;1.20;;
3819;SDS011;1925;51.356;9.530;2023-02-03T09:02:26;1.30;;;1.20;;
3819;SDS011;1925;51.356;9.530;2023-02-03T09:04:52;1.27;;;1.17;;
3819;SDS011;1925;51.356;9.530;2023-02-03T09:07:18;1.42;;;1.30;;
3819;SDS011;1925;51.356;9.530;2023-02-03T09:09:44;1.88;;;1.67;;
3819;SDS011;1925;51.356;9.530;2023-02-03T09:12:10;2.57;;;1.13;;
3819;SDS011;1925;51.356;9.530;2023-02-03T09:14:37;1.52;;;1.15;;
3819;SDS011;1925;51.356;9.530;2023-02-03T09:17:03;1.40;;;1.30;;
3819;SDS011;1925;51.356;9.530;2023-02-03T09:19:29;2.20;;;1.42;;
3819;SDS011;1925;51.356;9.530;2023-02-03T09:21:55;3.28;;;1.40;;
3819;SDS011;1925;51.356;9.530;2023-02-03T09:24:22;1.25;;;1.15;;
3819;SDS011;1925;51.356;9.530;2023-02-03T09:26:48;2.92;;;1.48;;
3819;SDS011;1925;51.356;9.530;2023-02-03T09:29:15;1.30;;;1.20;;
3819;SDS011;1925;51.356;9.530;2023-02-03T09:31:41;1.58;;;1.45;;
3819;SDS011;1925;51.356;9.530;2023-02-03T09:34:07;1.35;;;1.25;;
3819;SDS011;1925;51.356;9.530;2023-02-03T09:36:33;1.80;;;1.55;;
3819;SDS011;1925;51.356;9.530;2023-02-03T09:38:59;3.93;;;1.40;;
3819;SDS011;1925;51.356;9.530;2023-02-03T09:44:16;1.60;;;1.50;;
3819;SDS011;1925;51.356;9.530;2023-02-03T09:46:56;1.63;;;1.40;;
3819;SDS011;1925;51.356;9.530;2023-02-03T09:49:24;1.40;;;1.30;;
3819;SDS011;1925;51.356;9.530;2023-02-03T09:51:52;1.45;;;1.30;;
3819;SDS011;1925;51.356;9.530;2023-02-03T09:54:33;1.60;;;1.50;;
3819;SDS011;1925;51.356;9.530;2023-02-03T09:57:04;1.50;;;1.40;;
3819;SDS011;1925;51.356;9.530;2023-02-03T09:59:30;1.50;;;1.40;;
3819;SDS011;1925;51.356;9.530;2023-02-03T10:01:59;1.65;;;1.55;;
3819;SDS011;1925;51.356;9.530;2023-02-03T10:04:35;2.13;;;1.45;;
3819;SDS011;1925;51.356;9.530;2023-02-03T10:07:14;8.57;;;2.55;;
3819;SDS011;1925;51.356;9.530;2023-02-03T10:10:28;2.95;;;1.50;;
3819;SDS011;1925;51.356;9.530;2023-02-03T10:15:32;1.70;;;1.60;;
3819;SDS011;1925;51.356;9.530;2023-02-03T10:18:05;1.75;;;1.65;;
3819;SDS011;1925;51.356;9.530;2023-02-03T10:20:46;2.83;;;1.40;;
3819;SDS011;1925;51.356;9.530;2023-02-03T10:23:13;1.67;;;1.58;;
3819;SDS011;1925;51.356;9.530;2023-02-03T10:25:41;1.48;;;1.38;;
3819;SDS011;1925;51.356;9.530;2023-02-03T10:28:17;2.95;;;1.95;;
3819;SDS011;1925;51.356;9.530;2023-02-03T10:30:45;2.22;;;2.00;;
3819;SDS011;1925;51.356;9.530;2023-02-03T10:33:14;2.40;;;2.20;;
3819;SDS011;1925;51.356;9.530;2023-02-03T10:35:47;2.58;;;2.38;;
3819;SDS011;1925;51.356;9.530;2023-02-03T10:38:15;2.50;;;2.30;;
3819;SDS011;1925;51.356;9.530;2023-02-03T10:40:44;1.83;;;1.73;;
3819;SDS011;1925;51.356;9.530;2023-02-03T10:43:10;2.08;;;1.83;;
3819;SDS011;1925;51.356;9.530;2023-02-03T10:45:55;2.38;;;2.17;;
3819;SDS011;1925;51.356;9.530;2023-02-03T10:48:22;2.47;;;2.20;;
3819;SDS011;1925;51.356;9.530;2023-02-03T10:50:49;2.90;;;2.45;;
3819;SDS011;1925;51.356;9.530;2023-02-03T10:55:43;3.57;;;2.20;;
3819;SDS011;1925;51.356;9.530;2023-02-03T10:58:13;2.95;;;2.40;;
3819;SDS011;1925;51.356;9.530;2023-02-03T11:00:41;2.55;;;2.00;;
3819;SDS011;1925;51.356;9.530;2023-02-03T11:03:27;2.35;;;2.15;;
3819;SDS011;1925;51.356;9.530;2023-02-03T11:08:32;1.80;;;1.70;;
3819;SDS011;1925;51.356;9.530;2023-02-03T11:11:08;4.05;;;2.00;;
3819;SDS011;1925;51.356;9.530;2023-02-03T11:13:37;3.30;;;2.25;;
3819;SDS011;1925;51.356;9.530;2023-02-03T11:16:14;4.05;;;2.42;;
3819;SDS011;1925;51.356;9.530;2023-02-03T11:21:22;3.85;;;2.85;;
3819;SDS011;1925;51.356;9.530;2023-02-03T11:26:17;2.43;;;2.23;;
3819;SDS011;1925;51.356;9.530;2023-02-03T11:28:44;2.60;;;2.40;;
3819;SDS011;1925;51.356;9.530;2023-02-03T11:31:14;3.00;;;2.80;;
3819;SDS011;1925;51.356;9.530;2023-02-03T11:33:41;3.05;;;2.72;;
3819;SDS011;1925;51.356;9.530;2023-02-03T11:36:10;3.17;;;2.92;;
3819;SDS011;1925;51.356;9.530;2023-02-03T11:38:37;4.15;;;3.40;;
3819;SDS011;1925;51.356;9.530;2023-02-03T11:41:08;4.28;;;3.55;;
3819;SDS011;1925;51.356;9.530;2023-02-03T11:43:39;4.72;;;3.53;;
3819;SDS011;1925;51.356;9.530;2023-02-03T11:46:05;3.90;;;3.20;;
3819;SDS011;1925;51.356;9.530;2023-02-03T11:48:37;5.35;;;4.07;;
3819;SDS011;1925;51.356;9.530;2023-02-03T11:58:43;3.50;;;3.20;;
3819;SDS011;1925;51.356;9.530;2023-02-03T12:01:25;4.57;;;3.42;;
3819;SDS011;1925;51.356;9.530;2023-02-03T12:04:09;4.10;;;3.70;;
3819;SDS011;1925;51.356;9.530;2023-02-03T12:09:15;4.10;;;3.17;;
3819;SDS011;1925;51.356;9.530;2023-02-03T12:11:56;5.57;;;3.30;;
3819;SDS011;1925;51.356;9.530;2023-02-03T12:14:30;3.40;;;3.10;;
3819;SDS011;1925;51.356;9.530;2023-02-03T12:20:28;3.90;;;3.60;;
3819;SDS011;1925;51.356;9.530;2023-02-03T12:25:28;4.15;;;3.85;;
3819;SDS011;1925;51.356;9.530;2023-02-03T12:30:44;7.55;;;3.90;;
3819;SDS011;1925;51.356;9.530;2023-02-03T12:33:15;4.88;;;3.53;;
3819;SDS011;1925;51.356;9.530;2023-02-03T12:35:52;4.30;;;3.75;;
3819;SDS011;1925;51.356;9.530;2023-02-03T12:40:58;5.00;;;4.07;;
3819;SDS011;1925;51.356;9.530;2023-02-03T12:45:59;4.13;;;2.00;;
3819;SDS011;1925;51.356;9.530;2023-02-03T12:48:39;3.05;;;2.30;;
3819;SDS011;1925;51.356;9.530;2023-02-03T12:51:09;2.13;;;1.92;;
3819;SDS011;1925;51.356;9.530;2023-02-03T12:53:38;3.17;;;2.03;;
3819;SDS011;1925;51.356;9.530;2023-02-03T12:56:10;3.15;;;1.90;;
3819;SDS011;1925;51.356;9.530;2023-02-03T12:58:38;4.68;;;2.35;;
3819;SDS011;1925;51.356;9.530;2023-02-03T13:06:14;2.35;;;2.15;;
3819;SDS011;1925;51.356;9.530;2023-02-03T13:13:55;2.65;;;2.45;;
3819;SDS011;1925;51.356;9.530;2023-02-03T13:16:31;4.65;;;1.95;;
3819;SDS011;1925;51.356;9.530;2023-02-03T13:19:01;2.45;;;2.25;;
3819;SDS011;1925;51.356;9.530;2023-02-03T13:21:28;1.50;;;1.15;;
3819;SDS011;1925;51.356;9.530;2023-02-03T13:23:54;4.70;;;1.20;;
3819;SDS011;1925;51.356;9.530;2023-02-03T13:26:44;3.60;;;1.00;;
3819;SDS011;1925;51.356;9.530;2023-02-03T13:32:02;3.60;;;1.00;;
3819;SDS011;1925;51.356;9.530;2023-02-03T13:44:41;7.37;;;1.97;;
3819;SDS011;1925;51.356;9.530;2023-02-03T13:47:15;8.05;;;1.85;;
3819;SDS011;1925;51.356;9.530;2023-02-03T13:49:42;15.75;;;2.72;;
3819;SDS011;1925;51.356;9.530;2023-02-03T13:55:06;5.68;;;2.08;;
3819;SDS011;1925;51.356;9.530;2023-02-03T13:57:33;6.65;;;2.42;;
3819;SDS011;1925;51.356;9.530;2023-02-03T14:00:01;10.90;;;3.15;;
3819;SDS011;1925;51.356;9.530;2023-02-03T14:02:39;14.00;;;3.08;;
3819;SDS011;1925;51.356;9.530;2023-02-03T14:05:06;8.80;;;3.50;;
3819;SDS011;1925;51.356;9.530;2023-02-03T14:07:36;13.27;;;2.85;;
3819;SDS011;1925;51.356;9.530;2023-02-03T14:12:43;17.83;;;3.30;;
3819;SDS011;1925;51.356;9.530;2023-02-03T14:15:27;10.48;;;3.00;;
3819;SDS011;1925;51.356;9.530;2023-02-03T14:23:05;14.15;;;3.55;;
3819;SDS011;1925;51.356;9.530;2023-02-03T14:25:32;17.58;;;3.08;;
3819;SDS011;1925;51.356;9.530;2023-02-03T14:28:05;12.10;;;4.05;;
3819;SDS011;1925;51.356;9.530;2023-02-03T14:30:32;10.05;;;2.45;;
3819;SDS011;1925;51.356;9.530;2023-02-03T14:32:58;13.02;;;3.30;;
3819;SDS011;1925;51.356;9.530;2023-02-03T14:35:28;12.27;;;3.83;;
3819;SDS011;1925;51.356;9.530;2023-02-03T14:37:56;10.18;;;3.63;;
3819;SDS011;1925;51.356;9.530;2023-02-03T14:40:40;16.60;;;3.72;;
3819;SDS011;1925;51.356;9.530;2023-02-03T14:48:49;25.77;;;4.57;;
3819;SDS011;1925;51.356;9.530;2023-02-03T14:56:46;16.38;;;3.40;;
3819;SDS011;1925;51.356;9.530;2023-02-03T14:59:40;14.77;;;2.92;;
3819;SDS011;1925;51.356;9.530;2023-02-03T15:02:10;15.48;;;3.40;;
3819;SDS011;1925;51.356;9.530;2023-02-03T15:04:36;19.50;;;5.53;;
3819;SDS011;1925;51.356;9.530;2023-02-03T15:07:02;20.93;;;5.13;;
3819;SDS011;1925;51.356;9.530;2023-02-03T15:09:38;10.60;;;2.60;;
3819;SDS011;1925;51.356;9.530;2023-02-03T15:12:22;17.17;;;5.75;;
3819;SDS011;1925;51.356;9.530;2023-02-03T15:14:48;14.18;;;3.42;;
3819;SDS011;1925;51.356;9.530;2023-02-03T15:17:25;19.92;;;3.50;;
3819;SDS011;1925;51.356;9.530;2023-02-03T15:19:51;8.18;;;3.35;;
3819;SDS011;1925;51.356;9.530;2023-02-03T15:24:47;9.35;;;3.15;;
3819;SDS011;1925;51.356;9.530;2023-02-03T15:27:24;18.33;;;3.60;;
3819;SDS011;1925;51.356;9.530;2023-02-03T15:29:51;10.40;;;3.03;;
3819;SDS011;1925;51.356;9.530;2023-02-03T15:32:22;9.95;;;3.08;;
3819;SDS011;1925;51.356;9.530;2023-02-03T15:34:51;12.27;;;3.22;;
3819;SDS011;1925;51.356;9.530;2023-02-03T15:37:27;13.75;;;3.13;;
3819;SDS011;1925;51.356;9.530;2023-02-03T15:42:32;13.68;;;4.10;;
3819;SDS011;1925;51.356;9.530;2023-02-03T15:45:05;15.60;;;3.10;;
3819;SDS011;1925;51.356;9.530;2023-02-03T15:47:33;17.58;;;3.30;;
3819;SDS011;1925;51.356;9.530;2023-02-03T15:50:04;10.95;;;3.05;;
3819;SDS011;1925;51.356;9.530;2023-02-03T15:52:31;9.45;;;2.45;;
3819;SDS011;1925;51.356;9.530;2023-02-03T15:55:02;12.32;;;3.17;;
3819;SDS011;1925;51.356;9.530;2023-02-03T15:57:31;22.27;;;3.65;;
3819;SDS011;1925;51.356;9.530;2023-02-03T16:00:07;9.68;;;3.00;;
3819;SDS011;1925;51.356;9.530;2023-02-03T16:02:35;12.07;;;2.92;;
3819;SDS011;1925;51.356;9.530;2023-02-03T16:05:05;14.90;;;2.60;;
3819;SDS011;1925;51.356;9.530;2023-02-03T16:07:36;13.75;;;3.28;;
3819;SDS011;1925;51.356;9.530;2023-02-03T16:10:02;11.00;;;2.87;;
3819;SDS011;1925;51.356;9.530;2023-02-03T16:12:31;13.35;;;2.60;;
3819;SDS011;1925;51.356;9.530;2023-02-03T16:14:58;16.15;;;4.93;;
3819;SDS011;1925;51.356;9.530;2023-02-03T16:17:28;8.55;;;2.55;;
3819;SDS011;1925;51.356;9.530;2023-02-03T16:22:37;8.38;;;2.78;;
3819;SDS011;1925;51.356;9.530;2023-02-03T16:25:22;9.27;;;3.75;;
3819;SDS011;1925;51.356;9.530;2023-02-03T16:27:55;11.52;;;3.30;;
3819;SDS011;1925;51.356;9.530;2023-02-03T16:30:50;24.73;;;4.20;;
3819;SDS011;1925;51.356;9.530;2023-02-03T16:33:35;7.60;;;3.45;;
3819;SDS011;1925;51.356;9.530;2023-02-03T16:36:20;16.80;;;3.15;;
3819;SDS011;1925;51.356;9.530;2023-02-03T16:39:07;17.60;;;4.38;;
3819;SDS011;1925;51.356;9.530;2023-02-03T16:41:53;14.70;;;3.72;;
3819;SDS011;1925;51.356;9.530;2023-02-03T16:44:38;9.82;;;2.90;;
3819;SDS011;1925;51.356;9.530;2023-02-03T16:47:24;10.90;;;4.03;;
3819;SDS011;1925;51.356;9.530;2023-02-03T16:50:19;10.45;;;2.88;;
3819;SDS011;1925;51.356;9.530;2023-02-03T16:53:04;15.63;;;2.95;;
3819;SDS011;1925;51.356;9.530;2023-02-03T16:55:30;6.75;;;2.97;;
3819;SDS011;1925;51.356;9.530;2023-02-03T16:57:56;13.35;;;3.80;;
3819;SDS011;1925;51.356;9.530;2023-02-03T17:00:22;8.68;;;2.53;;
3819;SDS011;1925;51.356;9.530;2023-02-03T17:02:49;15.77;;;3.40;;
3819;SDS011;1925;51.356;9.530;2023-02-03T17:05:15;10.15;;;3.63;;
3819;SDS011;1925;51.356;9.530;2023-02-03T17:07:41;10.13;;;3.58;;
3819;SDS011;1925;51.356;9.530;2023-02-03T17:10:07;15.40;;;3.40;;